Jonni Ritscher — A8JT7 — position and weather

sailwx.info

Track history (hours):
 
Tides and Currents Weather Stations Pressure Air Temp Water Temp Dewpoint Dewpoint Depression Visibility Wind Speed Wind Dir Waves Ship Positions

Jonni Ritscher

Last reported at 2017-Nov-20 00:30 UTC. Time now 2017-Nov-20 07:46 UTC.
Position N 51°24' E 003°08'.

Length 179 m; draft 10.8 m.

Type: Ship. MMSI: 636091136.

Date/timePositionNaut miles runAvg speedWind from/ knotsBaromVisibWave heightAir tempDewpointWater temp
2017-Nov-20 00:30N 51°24' E 003°08'612.4
2017-Nov-20 00:00N 51°29' E 003°02'918.4
2017-Nov-19 23:30N 51°37' E 003°10'815.3
2017-Nov-19 23:00N 51°44' E 003°13'612.0
2017-Nov-19 22:30N 51°49' E 003°08'9113.6
2017-Nov-19 15:50N 53°08' E 004°19'14517.7
2017-Nov-19 07:39N 55°14' E 006°23'317.9
2017-Nov-19 07:28N 55°17' E 006°25'917.9
2017-Nov-19 06:59N 55°25' E 006°31'11316.3
2017-Nov-19 00:05N 57°03' E 008°10'113.5
2017-Nov-18 23:59N 57°04' E 008°12'712.7
2017-Nov-18 23:28N 57°08' E 008°21'612.6
2017-Nov-18 23:00N 57°12' E 008°30'612.2
2017-Nov-18 22:30N 57°16' E 008°39'6512.8
2017-Nov-18 17:27N 57°49' E 010°23'614.6
2017-Nov-18 17:01N 57°49' E 010°35'816.1
2017-Nov-18 16:30N 57°47' E 010°49'917.8
2017-Nov-18 16:01N 57°41' E 011°01'918.0
2017-Nov-18 15:30N 57°34' E 011°13'917.9
2017-Nov-18 15:00N 57°28' E 011°26'918.2
2017-Nov-18 14:31N 57°20' E 011°31'1018.6
2017-Nov-18 13:58N 57°11' E 011°38'918.4
2017-Nov-18 13:30N 57°02' E 011°43'10416.3
2017-Nov-18 07:06N 55°21' E 011°02'216.0
2017-Nov-18 06:57N 55°18' E 011°03'716.1
2017-Nov-18 06:30N 55°11' E 011°03'917.4
2017-Nov-18 06:00N 55°03' E 010°60'917.9
2017-Nov-18 05:31N 54°55' E 010°52'918.5
2017-Nov-18 05:00N 54°46' E 010°48'715.0
2017-Nov-18 04:31N 54°39' E 010°52'816.3
2017-Nov-18 04:01N 54°36' E 011°05'816.8
2017-Nov-18 03:30N 54°33' E 011°19'917.1
2017-Nov-18 03:00N 54°30' E 011°33'917.5
2017-Nov-18 02:30N 54°26' E 011°46'917.3
2017-Nov-18 02:01N 54°26' E 012°01'714.8
2017-Nov-18 01:30N 54°30' E 012°13'5817.4
2017-Nov-17 22:11N 54°59' E 013°39'618.8
2017-Nov-17 21:50N 55°01' E 013°49'818.8
2017-Nov-17 21:24N 55°04' E 014°03'718.7
2017-Nov-17 21:01N 55°09' E 014°11'918.5
2017-Nov-17 20:31N 55°16' E 014°22'918.9
2017-Nov-17 20:01N 55°24' E 014°32'918.8
2017-Nov-17 19:30N 55°29' E 014°46'1018.9
2017-Nov-17 19:00N 55°34' E 015°01'918.8
2017-Nov-17 18:30N 55°39' E 015°15'918.8
2017-Nov-17 18:00N 55°43' E 015°29'918.9
2017-Nov-17 17:30N 55°48' E 015°44'918.6
2017-Nov-17 17:00N 55°53' E 015°58'918.6
2017-Nov-17 16:31N 55°58' E 016°12'918.6
2017-Nov-17 16:00N 56°02' E 016°27'918.8
2017-Nov-17 15:30N 56°07' E 016°41'918.7
2017-Nov-17 15:00N 56°13' E 016°55'28018.2
2017-Nov-16 23:37N 59°36' E 022°59'218.1
2017-Nov-16 23:30N 59°36' E 023°03'918.4
2017-Nov-16 23:00N 59°39' E 023°20'918.4
2017-Nov-16 22:30N 59°41' E 023°38'918.5
2017-Nov-16 22:00N 59°44' E 023°55'918.4
2017-Nov-16 21:30N 59°46' E 024°13'918.7
2017-Nov-16 21:01N 59°48' E 024°31'918.6
2017-Nov-16 20:31N 59°50' E 024°49'918.7
2017-Nov-16 20:00N 59°52' E 025°07'918.9
2017-Nov-16 19:30N 59°53' E 025°26'2419.1
2017-Nov-16 18:16N 59°58' E 026°12'519.1
2017-Nov-16 18:01N 59°59' E 026°22'918.8
2017-Nov-16 17:30N 60°01' E 026°40'919.0
2017-Nov-16 17:01N 59°60' E 026°59'918.3
2017-Nov-16 16:31N 60°03' E 027°16'1019.0
2017-Nov-16 16:01N 60°08' E 027°32'918.1
2017-Nov-16 15:31N 60°12' E 027°49'918.6
2017-Nov-16 15:01N 60°09' E 028°07'918.2
2017-Nov-16 14:31N 60°05' E 028°23'816.3
2017-Nov-16 14:01N 60°00' E 028°36'612.6
2017-Nov-16 13:30N 59°54' E 028°32'713.5
2017-Nov-16 13:00N 59°48' E 028°25'612.7
2017-Nov-16 12:30N 59°42' E 028°24'1 2.4
2017-Nov-16 11:56N 59°40' E 028°24'0 0.0
2017-Nov-16 11:23N 59°40' E 028°24'0 0.0
2017-Nov-16 10:59N 59°40' E 028°24'0 0.0
2017-Nov-16 10:28N 59°40' E 028°24'0 0.0
2017-Nov-16 09:58N 59°40' E 028°24'0 0.0
2017-Nov-16 09:25N 59°40' E 028°24'0 0.0
2017-Nov-16 08:52N 59°40' E 028°24'0 0.0
2017-Nov-16 08:28N 59°40' E 028°24'0 0.0
2017-Nov-16 08:00N 59°40' E 028°24'0 0.0
2017-Nov-16 07:27N 59°40' E 028°24'0 0.0
2017-Nov-16 06:54N 59°40' E 028°24'0 0.0
2017-Nov-16 06:30N 59°40' E 028°24'0 0.0
2017-Nov-16 06:00N 59°40' E 028°24'0 0.0
2017-Nov-16 05:29N 59°40' E 028°24'0 0.0
2017-Nov-16 04:56N 59°40' E 028°24'0 0.0
2017-Nov-16 04:23N 59°40' E 028°24'0 0.0
2017-Nov-16 03:59N 59°40' E 028°24'0 0.0
2017-Nov-16 03:28N 59°40' E 028°24'0 0.0
2017-Nov-16 02:58N 59°40' E 028°24'0 0.1
2017-Nov-16 02:30N 59°41' E 028°24'1 2.3
2017-Nov-16 02:00N 59°42' E 028°24'3 6.3
2017-Nov-16 01:30N 59°45' E 028°24'5 9.8
2017-Nov-16 01:00N 59°50' E 028°25'611.9
2017-Nov-16 00:30N 59°55' E 028°32'4 7.3
2017-Nov-16 00:00N 59°58' E 028°35'4 7.9
2017-Nov-15 23:31N 60°02' E 028°35'918.7
2017-Nov-15 23:01N 60°06' E 028°18'1019.7
2017-Nov-15 22:31N 60°10' E 027°59'1019.0
2017-Nov-15 22:01N 60°09' E 027°40'1020.2
2017-Nov-15 21:31N 60°04' E 027°23'1020.1
2017-Nov-15 21:00N 59°59' E 027°05'1121.1
2017-Nov-15 20:30N 59°59' E 026°44'816.0
2017-Nov-15 20:00N 59°57' E 026°29'1019.8
2017-Nov-15 19:30N 59°47' E 026°32'1019.7
2017-Nov-15 18:59N 59°38' E 026°43'1318.3
2017-Nov-15 18:15N 59°32' E 027°07'518.7
2017-Nov-15 18:00N 59°31' E 027°16'816.7
2017-Nov-15 17:30N 59°30' E 027°32'612.4
2017-Nov-15 17:00N 59°27' E 027°43'2 3.5
2017-Nov-15 16:26N 59°25' E 027°44'0 0.0
2017-Nov-15 15:34N 59°25' E 027°44'0 0.0
2017-Nov-15 14:43N 59°25' E 027°44'0 0.0
2017-Nov-15 14:28N 59°25' E 027°44'0 0.0
2017-Nov-15 13:06N 59°25' E 027°44'0 0.0
2017-Nov-15 12:51N 59°25' E 027°44'0 0.0
2017-Nov-15 11:38N 59°25' E 027°44'0 0.0
2017-Nov-15 11:11N 59°25' E 027°44'0 0.0
2017-Nov-15 09:10N 59°25' E 027°44'0 0.0
2017-Nov-15 08:49N 59°25' E 027°44'0 0.0
2017-Nov-15 08:19N 59°25' E 027°44'0 0.0
2017-Nov-15 07:58N 59°25' E 027°44'0 0.0
2017-Nov-15 07:28N 59°25' E 027°44'0 0.0
2017-Nov-15 06:57N 59°25' E 027°44'0 0.0
2017-Nov-15 05:15N 59°25' E 027°44'0 0.1
2017-Nov-15 04:59N 59°25' E 027°44'1 2.4
2017-Nov-15 04:25N 59°27' E 027°44'2 5.8
2017-Nov-15 04:00N 59°28' E 027°41'712.8
2017-Nov-15 03:30N 59°30' E 027°28'612.8
2017-Nov-15 03:00N 59°31' E 027°16'713.3
2017-Nov-15 02:30N 59°33' E 027°03'814.9
2017-Nov-15 02:00N 59°34' E 026°49'714.9
2017-Nov-15 01:31N 59°40' E 026°40'815.0
2017-Nov-15 01:00N 59°46' E 026°32'815.1
2017-Nov-15 00:30N 59°53' E 026°23'714.9
2017-Nov-15 00:01N 59°59' E 026°17'713.9
2017-Nov-14 23:30N 60°06' E 026°19'714.2
2017-Nov-14 23:00N 60°13' E 026°24'510.7
2017-Nov-14 22:30N 60°17' E 026°31'713.6
2017-Nov-14 22:01N 60°22' E 026°40'816.2
2017-Nov-14 21:30N 60°25' E 026°55'0 0.4
2017-Nov-14 20:57N 60°25' E 026°55'0 0.0
2017-Nov-14 20:29N 60°25' E 026°55'0 0.0
2017-Nov-14 19:59N 60°25' E 026°55'0 0.0
2017-Nov-14 19:29N 60°25' E 026°55'0 0.0
2017-Nov-14 18:59N 60°25' E 026°55'0 0.0
2017-Nov-14 18:30N 60°25' E 026°55'0 0.0
2017-Nov-14 17:58N 60°25' E 026°55'0 0.0
2017-Nov-14 17:28N 60°25' E 026°55'0 0.0
2017-Nov-14 16:58N 60°25' E 026°55'0 0.0
2017-Nov-14 16:30N 60°25' E 026°55'0 0.0
2017-Nov-14 16:00N 60°25' E 026°55'0 0.0
2017-Nov-14 15:30N 60°25' E 026°55'0 0.0
2017-Nov-14 15:00N 60°25' E 026°55'0 0.0
2017-Nov-14 14:27N 60°25' E 026°55'0 0.0
2017-Nov-14 13:59N 60°25' E 026°55'0 0.0
2017-Nov-14 13:30N 60°25' E 026°55'0 0.0
2017-Nov-14 13:00N 60°25' E 026°55'0 0.0
2017-Nov-14 12:30N 60°25' E 026°55'0 0.0
2017-Nov-14 11:58N 60°25' E 026°55'0 0.0
2017-Nov-14 11:28N 60°25' E 026°55'0 0.0
2017-Nov-14 11:00N 60°25' E 026°55'0 0.0
2017-Nov-14 10:28N 60°25' E 026°55'0 0.0
2017-Nov-14 09:58N 60°25' E 026°55'0 0.0
2017-Nov-14 09:30N 60°25' E 026°55'0 0.0
2017-Nov-14 09:00N 60°25' E 026°55'0 0.0
2017-Nov-14 08:27N 60°25' E 026°55'0 0.0
2017-Nov-14 08:00N 60°25' E 026°55'0 0.0
2017-Nov-14 07:30N 60°25' E 026°55'0 0.0
2017-Nov-14 06:59N 60°25' E 026°55'0 0.0
2017-Nov-14 06:29N 60°25' E 026°55'0 0.0
2017-Nov-14 05:59N 60°25' E 026°55'0 0.0
2017-Nov-14 05:29N 60°25' E 026°55'0 0.0
2017-Nov-14 04:58N 60°25' E 026°55'0 0.0
2017-Nov-14 04:28N 60°25' E 026°55'0 0.0
2017-Nov-14 03:58N 60°25' E 026°55'0 0.0
2017-Nov-14 03:28N 60°25' E 026°55'0 0.0
2017-Nov-14 02:58N 60°25' E 026°55'0 0.0
2017-Nov-14 02:30N 60°25' E 026°55'0 0.0
2017-Nov-14 02:00N 60°25' E 026°55'0 0.0
2017-Nov-14 01:30N 60°25' E 026°55'0 0.0
2017-Nov-14 01:00N 60°25' E 026°55'0 0.0
2017-Nov-14 00:30N 60°25' E 026°55'0 0.0
2017-Nov-13 23:59N 60°25' E 026°55'0 0.0
2017-Nov-13 23:29N 60°25' E 026°55'0 0.0
2017-Nov-13 22:59N 60°25' E 026°55'0 0.0
2017-Nov-13 22:29N 60°25' E 026°55'0 0.0
2017-Nov-13 21:58N 60°25' E 026°55'17 0.9
2017-Nov-13 02:00N 60°15' E 026°27'5 9.9
2017-Nov-13 01:30N 60°11' E 026°22'4 7.4
2017-Nov-13 01:00N 60°08' E 026°17'4 7.4
2017-Nov-13 00:30N 60°05' E 026°13'21 8.5
2017-Nov-12 21:59N 59°52' E 025°39'511.3
2017-Nov-12 21:30N 59°50' E 025°28'611.4
2017-Nov-12 21:00N 59°49' E 025°17'611.1
2017-Nov-12 20:30N 59°48' E 025°06'611.2
2017-Nov-12 20:01N 59°47' E 024°55'611.2
2017-Nov-12 19:30N 59°46' E 024°44'611.3
2017-Nov-12 19:00N 59°45' E 024°33'611.4
2017-Nov-12 18:30N 59°43' E 024°22'611.3
2017-Nov-12 18:00N 59°42' E 024°12'611.4
2017-Nov-12 17:30N 59°40' E 024°01'611.3
2017-Nov-12 17:00N 59°38' E 023°50'611.3
2017-Nov-12 16:30N 59°36' E 023°40'611.3
2017-Nov-12 16:00N 59°35' E 023°29'611.4
2017-Nov-12 15:30N 59°33' E 023°19'611.1
2017-Nov-12 15:00N 59°31' E 023°08'28713.8
2017-Nov-11 18:11N 56°06' E 016°51'314.5
2017-Nov-11 17:59N 56°04' E 016°47'714.6
2017-Nov-11 17:30N 56°00' E 016°36'714.7
2017-Nov-11 17:00N 55°56' E 016°25'714.7
2017-Nov-11 16:30N 55°53' E 016°14'714.7
2017-Nov-11 16:00N 55°49' E 016°03'714.8
2017-Nov-11 15:30N 55°46' E 015°51'714.6
2017-Nov-11 15:00N 55°42' E 015°40'714.7
2017-Nov-11 14:30N 55°38' E 015°28'714.6
2017-Nov-11 14:00N 55°35' E 015°17'714.3
2017-Nov-11 13:31N 55°31' E 015°06'714.2
2017-Nov-11 13:00N 55°28' E 014°54'714.9
2017-Nov-11 12:31N 55°24' E 014°43'714.4
2017-Nov-11 12:01N 55°19' E 014°34'714.1
2017-Nov-11 11:30N 55°14' E 014°27'714.1
2017-Nov-11 11:01N 55°09' E 014°18'714.1
2017-Nov-11 10:31N 55°03' E 014°10'1414.9
2017-Nov-11 09:33N 54°57' E 013°48'114.9
2017-Nov-11 09:30N 54°57' E 013°47'3615.0
2017-Nov-11 07:08N 54°45' E 012°48'215.4
2017-Nov-11 07:01N 54°44' E 012°45'815.5
2017-Nov-11 06:31N 54°41' E 012°33'815.6
2017-Nov-11 06:00N 54°36' E 012°22'1913.9
2017-Nov-11 04:36N 54°24' E 011°55'116.2
2017-Nov-11 04:31N 54°25' E 011°53'815.4
2017-Nov-11 04:01N 54°26' E 011°40'816.1
2017-Nov-11 03:31N 54°30' E 011°28'816.2
2017-Nov-11 03:01N 54°34' E 011°15'816.4
2017-Nov-11 02:31N 54°38' E 011°03'816.0
2017-Nov-11 02:01N 54°42' E 010°51'815.5
2017-Nov-11 01:31N 54°50' E 010°51'714.6
2017-Nov-11 01:01N 54°57' E 010°56'713.9
2017-Nov-11 00:31N 55°03' E 011°01'714.9
2017-Nov-11 00:00N 55°10' E 011°03'713.1
2017-Nov-10 23:30N 55°17' E 011°03'10313.1
2017-Nov-10 15:36N 56°58' E 011°44'114.7
2017-Nov-10 15:31N 56°59' E 011°43'814.9
2017-Nov-10 14:59N 57°06' E 011°38'715.0
2017-Nov-10 14:30N 57°13' E 011°34'815.3
2017-Nov-10 14:00N 57°20' E 011°29'715.2
2017-Nov-10 13:30N 57°27' E 011°24'714.5
2017-Nov-10 13:01N 57°33' E 011°15'815.2
2017-Nov-10 12:30N 57°38' E 011°04'815.3
2017-Nov-10 11:59N 57°43' E 010°53'715.2
2017-Nov-10 11:30N 57°48' E 010°43'816.0
2017-Nov-10 11:01N 57°48' E 010°28'  
Track history (hours):
 
Tides and Currents Weather Stations Pressure Air Temp Water Temp Dewpoint Dewpoint Depression Visibility Wind Speed Wind Dir Waves Ship Positions

Jonni Ritscher

Last reported at 2017-Nov-20 00:30 UTC. Time now 2017-Nov-20 07:46 UTC.
Position N 51°24' E 003°08'.

Length 179 m; draft 10.8 m.

Type: Ship. MMSI: 636091136.

Date/timePositionNaut miles runAvg speedWind from/ knotsBaromVisibWave heightAir tempDewpointWater temp
2017-Nov-20 00:30N 51°24' E 003°08'612.4
2017-Nov-20 00:00N 51°29' E 003°02'918.4
2017-Nov-19 23:30N 51°37' E 003°10'815.3
2017-Nov-19 23:00N 51°44' E 003°13'612.0
2017-Nov-19 22:30N 51°49' E 003°08'9113.6
2017-Nov-19 15:50N 53°08' E 004°19'14517.7
2017-Nov-19 07:39N 55°14' E 006°23'317.9
2017-Nov-19 07:28N 55°17' E 006°25'917.9
2017-Nov-19 06:59N 55°25' E 006°31'11316.3
2017-Nov-19 00:05N 57°03' E 008°10'113.5
2017-Nov-18 23:59N 57°04' E 008°12'712.7
2017-Nov-18 23:28N 57°08' E 008°21'612.6
2017-Nov-18 23:00N 57°12' E 008°30'612.2
2017-Nov-18 22:30N 57°16' E 008°39'6512.8
2017-Nov-18 17:27N 57°49' E 010°23'614.6
2017-Nov-18 17:01N 57°49' E 010°35'816.1
2017-Nov-18 16:30N 57°47' E 010°49'917.8
2017-Nov-18 16:01N 57°41' E 011°01'918.0
2017-Nov-18 15:30N 57°34' E 011°13'917.9
2017-Nov-18 15:00N 57°28' E 011°26'918.2
2017-Nov-18 14:31N 57°20' E 011°31'1018.6
2017-Nov-18 13:58N 57°11' E 011°38'918.4
2017-Nov-18 13:30N 57°02' E 011°43'10416.3
2017-Nov-18 07:06N 55°21' E 011°02'216.0
2017-Nov-18 06:57N 55°18' E 011°03'716.1
2017-Nov-18 06:30N 55°11' E 011°03'917.4
2017-Nov-18 06:00N 55°03' E 010°60'917.9
2017-Nov-18 05:31N 54°55' E 010°52'918.5
2017-Nov-18 05:00N 54°46' E 010°48'715.0
2017-Nov-18 04:31N 54°39' E 010°52'816.3
2017-Nov-18 04:01N 54°36' E 011°05'816.8
2017-Nov-18 03:30N 54°33' E 011°19'917.1
2017-Nov-18 03:00N 54°30' E 011°33'917.5
2017-Nov-18 02:30N 54°26' E 011°46'917.3
2017-Nov-18 02:01N 54°26' E 012°01'714.8
2017-Nov-18 01:30N 54°30' E 012°13'5817.4
2017-Nov-17 22:11N 54°59' E 013°39'618.8
2017-Nov-17 21:50N 55°01' E 013°49'818.8
2017-Nov-17 21:24N 55°04' E 014°03'718.7
2017-Nov-17 21:01N 55°09' E 014°11'918.5
2017-Nov-17 20:31N 55°16' E 014°22'918.9
2017-Nov-17 20:01N 55°24' E 014°32'918.8
2017-Nov-17 19:30N 55°29' E 014°46'1018.9
2017-Nov-17 19:00N 55°34' E 015°01'918.8
2017-Nov-17 18:30N 55°39' E 015°15'918.8
2017-Nov-17 18:00N 55°43' E 015°29'918.9
2017-Nov-17 17:30N 55°48' E 015°44'918.6
2017-Nov-17 17:00N 55°53' E 015°58'918.6
2017-Nov-17 16:31N 55°58' E 016°12'918.6
2017-Nov-17 16:00N 56°02' E 016°27'918.8
2017-Nov-17 15:30N 56°07' E 016°41'918.7
2017-Nov-17 15:00N 56°13' E 016°55'28018.2
2017-Nov-16 23:37N 59°36' E 022°59'218.1
2017-Nov-16 23:30N 59°36' E 023°03'918.4
2017-Nov-16 23:00N 59°39' E 023°20'918.4
2017-Nov-16 22:30N 59°41' E 023°38'918.5
2017-Nov-16 22:00N 59°44' E 023°55'918.4
2017-Nov-16 21:30N 59°46' E 024°13'918.7
2017-Nov-16 21:01N 59°48' E 024°31'918.6
2017-Nov-16 20:31N 59°50' E 024°49'918.7
2017-Nov-16 20:00N 59°52' E 025°07'918.9
2017-Nov-16 19:30N 59°53' E 025°26'2419.1
2017-Nov-16 18:16N 59°58' E 026°12'519.1
2017-Nov-16 18:01N 59°59' E 026°22'918.8
2017-Nov-16 17:30N 60°01' E 026°40'919.0
2017-Nov-16 17:01N 59°60' E 026°59'918.3
2017-Nov-16 16:31N 60°03' E 027°16'1019.0
2017-Nov-16 16:01N 60°08' E 027°32'918.1
2017-Nov-16 15:31N 60°12' E 027°49'918.6
2017-Nov-16 15:01N 60°09' E 028°07'918.2
2017-Nov-16 14:31N 60°05' E 028°23'816.3
2017-Nov-16 14:01N 60°00' E 028°36'612.6
2017-Nov-16 13:30N 59°54' E 028°32'713.5
2017-Nov-16 13:00N 59°48' E 028°25'612.7
2017-Nov-16 12:30N 59°42' E 028°24'1 2.4
2017-Nov-16 11:56N 59°40' E 028°24'0 0.0
2017-Nov-16 11:23N 59°40' E 028°24'0 0.0
2017-Nov-16 10:59N 59°40' E 028°24'0 0.0
2017-Nov-16 10:28N 59°40' E 028°24'0 0.0
2017-Nov-16 09:58N 59°40' E 028°24'0 0.0
2017-Nov-16 09:25N 59°40' E 028°24'0 0.0
2017-Nov-16 08:52N 59°40' E 028°24'0 0.0
2017-Nov-16 08:28N 59°40' E 028°24'0 0.0
2017-Nov-16 08:00N 59°40' E 028°24'0 0.0
2017-Nov-16 07:27N 59°40' E 028°24'0 0.0
2017-Nov-16 06:54N 59°40' E 028°24'0 0.0
2017-Nov-16 06:30N 59°40' E 028°24'0 0.0
2017-Nov-16 06:00N 59°40' E 028°24'0 0.0
2017-Nov-16 05:29N 59°40' E 028°24'0 0.0
2017-Nov-16 04:56N 59°40' E 028°24'0 0.0
2017-Nov-16 04:23N 59°40' E 028°24'0 0.0
2017-Nov-16 03:59N 59°40' E 028°24'0 0.0
2017-Nov-16 03:28N 59°40' E 028°24'0 0.0
2017-Nov-16 02:58N 59°40' E 028°24'0 0.1
2017-Nov-16 02:30N 59°41' E 028°24'1 2.3
2017-Nov-16 02:00N 59°42' E 028°24'3 6.3
2017-Nov-16 01:30N 59°45' E 028°24'5 9.8
2017-Nov-16 01:00N 59°50' E 028°25'611.9
2017-Nov-16 00:30N 59°55' E 028°32'4 7.3
2017-Nov-16 00:00N 59°58' E 028°35'4 7.9
2017-Nov-15 23:31N 60°02' E 028°35'918.7
2017-Nov-15 23:01N 60°06' E 028°18'1019.7
2017-Nov-15 22:31N 60°10' E 027°59'1019.0
2017-Nov-15 22:01N 60°09' E 027°40'1020.2
2017-Nov-15 21:31N 60°04' E 027°23'1020.1
2017-Nov-15 21:00N 59°59' E 027°05'1121.1
2017-Nov-15 20:30N 59°59' E 026°44'816.0
2017-Nov-15 20:00N 59°57' E 026°29'1019.8
2017-Nov-15 19:30N 59°47' E 026°32'1019.7
2017-Nov-15 18:59N 59°38' E 026°43'1318.3
2017-Nov-15 18:15N 59°32' E 027°07'518.7
2017-Nov-15 18:00N 59°31' E 027°16'816.7
2017-Nov-15 17:30N 59°30' E 027°32'612.4
2017-Nov-15 17:00N 59°27' E 027°43'2 3.5
2017-Nov-15 16:26N 59°25' E 027°44'0 0.0
2017-Nov-15 15:34N 59°25' E 027°44'0 0.0
2017-Nov-15 14:43N 59°25' E 027°44'0 0.0
2017-Nov-15 14:28N 59°25' E 027°44'0 0.0
2017-Nov-15 13:06N 59°25' E 027°44'0 0.0
2017-Nov-15 12:51N 59°25' E 027°44'0 0.0
2017-Nov-15 11:38N 59°25' E 027°44'0 0.0
2017-Nov-15 11:11N 59°25' E 027°44'0 0.0
2017-Nov-15 09:10N 59°25' E 027°44'0 0.0
2017-Nov-15 08:49N 59°25' E 027°44'0 0.0
2017-Nov-15 08:19N 59°25' E 027°44'0 0.0
2017-Nov-15 07:58N 59°25' E 027°44'0 0.0
2017-Nov-15 07:28N 59°25' E 027°44'0 0.0
2017-Nov-15 06:57N 59°25' E 027°44'0 0.0
2017-Nov-15 05:15N 59°25' E 027°44'0 0.1
2017-Nov-15 04:59N 59°25' E 027°44'1 2.4
2017-Nov-15 04:25N 59°27' E 027°44'2 5.8
2017-Nov-15 04:00N 59°28' E 027°41'712.8
2017-Nov-15 03:30N 59°30' E 027°28'612.8
2017-Nov-15 03:00N 59°31' E 027°16'713.3
2017-Nov-15 02:30N 59°33' E 027°03'814.9
2017-Nov-15 02:00N 59°34' E 026°49'714.9
2017-Nov-15 01:31N 59°40' E 026°40'815.0
2017-Nov-15 01:00N 59°46' E 026°32'815.1
2017-Nov-15 00:30N 59°53' E 026°23'714.9
2017-Nov-15 00:01N 59°59' E 026°17'713.9
2017-Nov-14 23:30N 60°06' E 026°19'714.2
2017-Nov-14 23:00N 60°13' E 026°24'510.7
2017-Nov-14 22:30N 60°17' E 026°31'713.6
2017-Nov-14 22:01N 60°22' E 026°40'816.2
2017-Nov-14 21:30N 60°25' E 026°55'0 0.4
2017-Nov-14 20:57N 60°25' E 026°55'0 0.0
2017-Nov-14 20:29N 60°25' E 026°55'0 0.0
2017-Nov-14 19:59N 60°25' E 026°55'0 0.0
2017-Nov-14 19:29N 60°25' E 026°55'0 0.0
2017-Nov-14 18:59N 60°25' E 026°55'0 0.0
2017-Nov-14 18:30N 60°25' E 026°55'0 0.0
2017-Nov-14 17:58N 60°25' E 026°55'0 0.0
2017-Nov-14 17:28N 60°25' E 026°55'0 0.0
2017-Nov-14 16:58N 60°25' E 026°55'0 0.0
2017-Nov-14 16:30N 60°25' E 026°55'0 0.0
2017-Nov-14 16:00N 60°25' E 026°55'0 0.0
2017-Nov-14 15:30N 60°25' E 026°55'0 0.0
2017-Nov-14 15:00N 60°25' E 026°55'0 0.0
2017-Nov-14 14:27N 60°25' E 026°55'0 0.0
2017-Nov-14 13:59N 60°25' E 026°55'0 0.0
2017-Nov-14 13:30N 60°25' E 026°55'0 0.0
2017-Nov-14 13:00N 60°25' E 026°55'0 0.0
2017-Nov-14 12:30N 60°25' E 026°55'0 0.0
2017-Nov-14 11:58N 60°25' E 026°55'0 0.0
2017-Nov-14 11:28N 60°25' E 026°55'0 0.0
2017-Nov-14 11:00N 60°25' E 026°55'0 0.0
2017-Nov-14 10:28N 60°25' E 026°55'0 0.0
2017-Nov-14 09:58N 60°25' E 026°55'0 0.0
2017-Nov-14 09:30N 60°25' E 026°55'0 0.0
2017-Nov-14 09:00N 60°25' E 026°55'0 0.0
2017-Nov-14 08:27N 60°25' E 026°55'0 0.0
2017-Nov-14 08:00N 60°25' E 026°55'0 0.0
2017-Nov-14 07:30N 60°25' E 026°55'0 0.0
2017-Nov-14 06:59N 60°25' E 026°55'0 0.0
2017-Nov-14 06:29N 60°25' E 026°55'0 0.0
2017-Nov-14 05:59N 60°25' E 026°55'0 0.0
2017-Nov-14 05:29N 60°25' E 026°55'0 0.0
2017-Nov-14 04:58N 60°25' E 026°55'0 0.0
2017-Nov-14 04:28N 60°25' E 026°55'0 0.0
2017-Nov-14 03:58N 60°25' E 026°55'0 0.0
2017-Nov-14 03:28N 60°25' E 026°55'0 0.0
2017-Nov-14 02:58N 60°25' E 026°55'0 0.0
2017-Nov-14 02:30N 60°25' E 026°55'0 0.0
2017-Nov-14 02:00N 60°25' E 026°55'0 0.0
2017-Nov-14 01:30N 60°25' E 026°55'0 0.0
2017-Nov-14 01:00N 60°25' E 026°55'0 0.0
2017-Nov-14 00:30N 60°25' E 026°55'0 0.0
2017-Nov-13 23:59N 60°25' E 026°55'0 0.0
2017-Nov-13 23:29N 60°25' E 026°55'0 0.0
2017-Nov-13 22:59N 60°25' E 026°55'0 0.0
2017-Nov-13 22:29N 60°25' E 026°55'0 0.0
2017-Nov-13 21:58N 60°25' E 026°55'17 0.9
2017-Nov-13 02:00N 60°15' E 026°27'5 9.9
2017-Nov-13 01:30N 60°11' E 026°22'4 7.4
2017-Nov-13 01:00N 60°08' E 026°17'4 7.4
2017-Nov-13 00:30N 60°05' E 026°13'21 8.5
2017-Nov-12 21:59N 59°52' E 025°39'511.3
2017-Nov-12 21:30N 59°50' E 025°28'611.4
2017-Nov-12 21:00N 59°49' E 025°17'611.1
2017-Nov-12 20:30N 59°48' E 025°06'611.2
2017-Nov-12 20:01N 59°47' E 024°55'611.2
2017-Nov-12 19:30N 59°46' E 024°44'611.3
2017-Nov-12 19:00N 59°45' E 024°33'611.4
2017-Nov-12 18:30N 59°43' E 024°22'611.3
2017-Nov-12 18:00N 59°42' E 024°12'611.4
2017-Nov-12 17:30N 59°40' E 024°01'611.3
2017-Nov-12 17:00N 59°38' E 023°50'611.3
2017-Nov-12 16:30N 59°36' E 023°40'611.3
2017-Nov-12 16:00N 59°35' E 023°29'611.4
2017-Nov-12 15:30N 59°33' E 023°19'611.1
2017-Nov-12 15:00N 59°31' E 023°08'28713.8
2017-Nov-11 18:11N 56°06' E 016°51'314.5
2017-Nov-11 17:59N 56°04' E 016°47'714.6
2017-Nov-11 17:30N 56°00' E 016°36'714.7
2017-Nov-11 17:00N 55°56' E 016°25'714.7
2017-Nov-11 16:30N 55°53' E 016°14'714.7
2017-Nov-11 16:00N 55°49' E 016°03'714.8
2017-Nov-11 15:30N 55°46' E 015°51'714.6
2017-Nov-11 15:00N 55°42' E 015°40'714.7
2017-Nov-11 14:30N 55°38' E 015°28'714.6
2017-Nov-11 14:00N 55°35' E 015°17'714.3
2017-Nov-11 13:31N 55°31' E 015°06'714.2
2017-Nov-11 13:00N 55°28' E 014°54'714.9
2017-Nov-11 12:31N 55°24' E 014°43'714.4
2017-Nov-11 12:01N 55°19' E 014°34'714.1
2017-Nov-11 11:30N 55°14' E 014°27'714.1
2017-Nov-11 11:01N 55°09' E 014°18'714.1
2017-Nov-11 10:31N 55°03' E 014°10'1414.9
2017-Nov-11 09:33N 54°57' E 013°48'114.9
2017-Nov-11 09:30N 54°57' E 013°47'3615.0
2017-Nov-11 07:08N 54°45' E 012°48'215.4
2017-Nov-11 07:01N 54°44' E 012°45'815.5
2017-Nov-11 06:31N 54°41' E 012°33'815.6
2017-Nov-11 06:00N 54°36' E 012°22'1913.9
2017-Nov-11 04:36N 54°24' E 011°55'116.2
2017-Nov-11 04:31N 54°25' E 011°53'815.4
2017-Nov-11 04:01N 54°26' E 011°40'816.1
2017-Nov-11 03:31N 54°30' E 011°28'816.2
2017-Nov-11 03:01N 54°34' E 011°15'816.4
2017-Nov-11 02:31N 54°38' E 011°03'816.0
2017-Nov-11 02:01N 54°42' E 010°51'815.5
2017-Nov-11 01:31N 54°50' E 010°51'714.6
2017-Nov-11 01:01N 54°57' E 010°56'713.9
2017-Nov-11 00:31N 55°03' E 011°01'714.9
2017-Nov-11 00:00N 55°10' E 011°03'713.1
2017-Nov-10 23:30N 55°17' E 011°03'10313.1
2017-Nov-10 15:36N 56°58' E 011°44'114.7
2017-Nov-10 15:31N 56°59' E 011°43'814.9
2017-Nov-10 14:59N 57°06' E 011°38'715.0
2017-Nov-10 14:30N 57°13' E 011°34'815.3
2017-Nov-10 14:00N 57°20' E 011°29'715.2
2017-Nov-10 13:30N 57°27' E 011°24'714.5
2017-Nov-10 13:01N 57°33' E 011°15'815.2
2017-Nov-10 12:30N 57°38' E 011°04'815.3
2017-Nov-10 11:59N 57°43' E 010°53'715.2
2017-Nov-10 11:30N 57°48' E 010°43'816.0
2017-Nov-10 11:01N 57°48' E 010°28'  

Dump ship's entire track history